createdAt,value
2018-11-03T00:02:18.430Z,63.20
2018-11-03T00:04:47.170Z,63.20
2018-11-03T00:07:16.857Z,63.30
2018-11-03T00:09:45.469Z,63.30
2018-11-03T00:12:14.042Z,63.30
2018-11-03T00:14:43.639Z,63.30
2018-11-03T00:17:12.222Z,63.30
2018-11-03T00:19:40.744Z,63.40
2018-11-03T00:22:09.265Z,63.40
2018-11-03T00:24:37.759Z,63.50
2018-11-03T00:27:06.326Z,63.60
2018-11-03T00:29:34.820Z,63.60
2018-11-03T00:32:03.263Z,63.60
2018-11-03T00:34:31.764Z,63.60
2018-11-03T00:37:00.332Z,63.60
2018-11-03T00:39:29.590Z,63.60
2018-11-03T00:41:58.104Z,63.70
2018-11-03T00:44:26.717Z,63.70
2018-11-03T00:46:55.320Z,63.70
2018-11-03T00:49:23.829Z,63.70
2018-11-03T00:51:52.326Z,63.80
2018-11-03T00:54:20.840Z,63.80
2018-11-03T00:56:49.333Z,63.70
2018-11-03T00:59:18.230Z,63.80
2018-11-03T01:01:46.751Z,63.80
2018-11-03T01:04:16.365Z,64.00
2018-11-03T01:06:44.870Z,63.90
2018-11-03T01:09:13.373Z,64.00
2018-11-03T01:11:41.858Z,64.10
2018-11-03T01:14:10.378Z,64.80
2018-11-03T01:16:38.901Z,64.10
2018-11-03T01:19:07.501Z,64.00
2018-11-03T01:21:35.986Z,64.20
2018-11-03T01:24:04.960Z,64.30
2018-11-03T01:26:33.442Z,64.40
2018-11-03T01:29:01.966Z,64.50
2018-11-03T01:31:33.494Z,65.30
2018-11-03T01:34:03.403Z,64.60
2018-11-03T01:36:32.020Z,64.70
2018-11-03T01:39:01.729Z,64.60
2018-11-03T01:41:30.411Z,64.70
2018-11-03T01:43:58.950Z,64.80
2018-11-03T01:46:27.439Z,65.60
2018-11-03T01:48:55.920Z,64.90
2018-11-03T01:51:25.032Z,64.80
2018-11-03T01:53:55.596Z,65.00
2018-11-03T01:56:24.428Z,65.10
2018-11-03T01:58:52.977Z,65.10
2018-11-03T02:01:21.596Z,65.10
2018-11-03T02:03:50.162Z,65.10
2018-11-03T02:06:18.736Z,65.20
2018-11-03T02:08:47.359Z,65.30
2018-11-03T02:11:16.152Z,65.30
2018-11-03T02:13:44.692Z,65.30
2018-11-03T02:16:13.189Z,65.30
2018-11-03T02:18:41.820Z,65.30
2018-11-03T02:21:10.483Z,65.50
2018-11-03T02:23:39.310Z,65.50
2018-11-03T02:26:07.806Z,65.50
2018-11-03T02:28:36.272Z,65.50
2018-11-03T02:31:05.201Z,65.60
2018-11-03T02:33:33.694Z,65.60
2018-11-03T02:36:02.221Z,65.60
2018-11-03T02:38:30.739Z,65.60
2018-11-03T02:40:59.228Z,65.70
2018-11-03T02:43:31.356Z,65.70
2018-11-03T02:45:59.828Z,65.80
2018-11-03T02:48:28.388Z,65.70
2018-11-03T02:50:56.886Z,65.80
2018-11-03T02:53:25.376Z,65.90
2018-11-03T02:55:53.877Z,65.90
2018-11-03T02:58:23.462Z,66.00
2018-11-03T03:00:52.305Z,66.00
2018-11-03T03:03:20.979Z,66.10
2018-11-03T03:05:49.476Z,66.30
2018-11-03T03:08:18.316Z,66.10
2018-11-03T03:10:47.585Z,66.10
2018-11-03T03:13:16.591Z,66.20
2018-11-03T03:15:47.255Z,66.30
2018-11-03T03:18:16.085Z,66.30
2018-11-03T03:20:48.912Z,66.30
2018-11-03T03:23:18.492Z,66.50
2018-11-03T03:25:48.278Z,66.50
2018-11-03T03:28:17.120Z,66.50
2018-11-03T03:30:45.643Z,66.50
2018-11-03T03:33:14.193Z,66.50
2018-11-03T03:35:42.941Z,66.50
2018-11-03T03:38:11.585Z,66.50
2018-11-03T03:40:40.184Z,66.50
2018-11-03T03:43:08.689Z,66.50
2018-11-03T03:45:37.216Z,66.50
2018-11-03T03:48:05.795Z,66.60
2018-11-03T03:50:34.847Z,66.60
2018-11-03T03:53:03.403Z,66.60
2018-11-03T03:55:31.876Z,66.70
2018-11-03T03:58:00.483Z,66.70
2018-11-03T04:00:28.969Z,66.80
2018-11-03T04:02:58.153Z,66.80
2018-11-03T04:05:26.675Z,66.80
2018-11-03T04:07:55.356Z,66.90
2018-11-03T04:10:23.837Z,66.80
2018-11-03T04:12:52.374Z,66.80
2018-11-03T04:15:21.579Z,66.80
2018-11-03T04:17:50.096Z,66.90
2018-11-03T04:20:19.316Z,66.90
2018-11-03T04:22:47.765Z,66.90
2018-11-03T04:25:17.244Z,66.90
2018-11-03T04:27:45.804Z,66.90
2018-11-03T04:30:15.210Z,66.80
2018-11-03T04:32:44.780Z,66.90
2018-11-03T04:35:13.290Z,66.90
2018-11-03T04:37:42.142Z,66.90
2018-11-03T04:40:12.016Z,66.70
2018-11-03T04:42:40.960Z,66.70
2018-11-03T04:45:11.151Z,66.70
2018-11-03T04:47:39.609Z,66.70
2018-11-03T04:50:09.175Z,66.70
2018-11-03T04:52:37.738Z,67.30
2018-11-03T04:55:06.592Z,66.80
2018-11-03T04:57:35.178Z,66.80
2018-11-03T05:00:03.851Z,67.00
2018-11-03T05:02:32.328Z,66.90
2018-11-03T05:05:00.881Z,66.90
2018-11-03T05:07:29.462Z,66.80
2018-11-03T05:09:58.234Z,66.90
2018-11-03T05:12:26.870Z,66.90
2018-11-03T05:14:55.504Z,67.00
2018-11-03T05:17:24.532Z,67.10
2018-11-03T05:19:53.280Z,67.10
2018-11-03T05:22:21.781Z,67.10
2018-11-03T05:24:50.469Z,67.10
2018-11-03T05:27:18.986Z,67.10
2018-11-03T05:29:47.513Z,67.00
2018-11-03T05:32:16.053Z,67.00
2018-11-03T05:34:44.574Z,67.00
2018-11-03T05:37:13.065Z,67.80
2018-11-03T05:39:41.557Z,67.10
2018-11-03T05:42:10.270Z,67.10
2018-11-03T05:44:38.771Z,67.10
2018-11-03T05:47:08.740Z,67.10
2018-11-03T05:49:38.707Z,67.10
2018-11-03T05:52:07.760Z,67.20
2018-11-03T05:54:37.163Z,67.10
2018-11-03T05:57:06.809Z,67.10
2018-11-03T05:59:36.184Z,67.00
2018-11-03T06:02:06.132Z,67.10
2018-11-03T06:04:37.663Z,67.20
2018-11-03T06:07:07.012Z,67.00
2018-11-03T06:09:37.480Z,67.10
2018-11-03T06:12:07.977Z,67.20
2018-11-03T06:14:38.883Z,67.10
2018-11-03T06:17:08.278Z,67.20
2018-11-03T06:19:38.554Z,67.10
2018-11-03T06:22:08.010Z,67.10
2018-11-03T06:24:37.893Z,67.00
2018-11-03T06:27:08.451Z,67.00
2018-11-03T06:29:39.394Z,67.00
2018-11-03T06:32:08.828Z,67.00
2018-11-03T06:34:38.770Z,67.00
2018-11-03T06:37:08.423Z,67.10
2018-11-03T06:39:38.637Z,67.10
2018-11-03T06:42:08.171Z,67.20
2018-11-03T06:44:37.496Z,67.30
2018-11-03T06:47:06.801Z,67.40
2018-11-03T06:49:36.359Z,67.40
2018-11-03T06:52:05.795Z,67.40
2018-11-03T06:54:34.997Z,67.40
2018-11-03T06:57:05.103Z,67.50
2018-11-03T06:59:33.749Z,67.60
2018-11-03T07:02:12.441Z,67.60
2018-11-03T07:04:41.681Z,67.60
2018-11-03T07:07:10.165Z,67.70
2018-11-03T07:09:44.181Z,67.80
2018-11-03T07:12:17.120Z,67.80
2018-11-03T07:14:45.793Z,67.80
2018-11-03T07:17:19.310Z,68.40
2018-11-03T07:20:09.273Z,67.90
2018-11-03T07:22:49.479Z,68.20
2018-11-03T07:25:28.095Z,68.20
2018-11-03T07:28:12.025Z,68.00
2018-11-03T07:30:50.314Z,69.00
2018-11-03T07:33:31.365Z,68.10
2018-11-03T07:36:13.173Z,68.20
2018-11-03T07:38:49.645Z,68.00
2018-11-03T07:41:30.597Z,68.10
2018-11-03T07:46:50.791Z,68.00
2018-11-03T07:49:20.662Z,67.80
2018-11-03T07:51:50.013Z,67.80
2018-11-03T07:54:20.267Z,67.60
2018-11-03T07:56:50.779Z,67.60
2018-11-03T07:59:21.189Z,67.60
2018-11-03T08:01:50.327Z,67.40
2018-11-03T08:04:19.675Z,67.20
2018-11-03T08:06:48.845Z,67.10
2018-11-03T08:09:17.613Z,67.00
2018-11-03T08:11:45.971Z,66.80
2018-11-03T08:14:14.514Z,66.60
2018-11-03T08:16:44.096Z,66.60
2018-11-03T08:19:12.837Z,66.60
2018-11-03T08:21:41.799Z,66.50
2018-11-03T08:24:10.699Z,66.50
2018-11-03T08:26:40.260Z,66.40
2018-11-03T08:29:09.436Z,66.30
2018-11-03T08:31:38.887Z,65.90
2018-11-03T08:34:07.281Z,65.90
2018-11-03T08:36:36.387Z,65.90
2018-11-03T08:39:07.562Z,66.20
2018-11-03T08:41:36.148Z,65.50
2018-11-03T08:44:06.661Z,65.40
2018-11-03T08:46:35.930Z,65.20
2018-11-03T08:49:08.424Z,65.00
2018-11-03T08:51:45.558Z,64.60
2018-11-03T08:57:14.257Z,64.60
2018-11-03T08:59:59.672Z,64.60
2018-11-03T09:02:33.871Z,64.70
2018-11-03T09:05:10.285Z,64.70
2018-11-03T09:07:44.226Z,64.40
2018-11-03T09:10:15.802Z,64.30
2018-11-03T09:12:44.774Z,64.30
2018-11-03T09:15:16.804Z,64.10
2018-11-03T09:17:45.425Z,63.80
2018-11-03T09:20:17.395Z,63.80
2018-11-03T09:22:47.414Z,63.70
2018-11-03T09:25:17.296Z,63.60
2018-11-03T09:27:45.869Z,63.30
2018-11-03T09:30:17.436Z,63.40
2018-11-03T09:32:47.037Z,63.40
2018-11-03T09:35:17.284Z,63.20
2018-11-03T09:37:50.178Z,63.30
2018-11-03T09:40:28.078Z,63.40
2018-11-03T09:48:45.202Z,63.40
2018-11-03T09:52:02.923Z,63.20
2018-11-03T09:54:48.892Z,63.20
2018-11-03T10:00:17.169Z,63.20
2018-11-03T10:05:46.111Z,63.20
2018-11-03T10:08:39.127Z,62.90
2018-11-03T10:17:13.553Z,62.90
2018-11-03T10:19:45.416Z,62.90
2018-11-03T10:22:45.741Z,62.70
2018-11-03T10:25:30.599Z,62.50
2018-11-03T10:28:07.905Z,62.40
2018-11-03T10:30:44.521Z,62.50
2018-11-03T10:33:21.632Z,62.10
2018-11-03T10:36:14.753Z,61.80
2018-11-03T10:49:44.259Z,62.00
2018-11-03T10:52:13.573Z,61.40
2018-11-03T10:54:42.141Z,61.00
2018-11-03T10:57:11.159Z,61.20
2018-11-03T10:59:39.733Z,61.30
2018-11-03T11:02:14.448Z,61.30
2018-11-03T11:04:48.793Z,61.20
2018-11-03T11:07:22.781Z,60.90
2018-11-03T11:12:48.008Z,60.90
2018-11-03T11:15:17.217Z,61.40
2018-11-03T11:17:46.198Z,60.10
2018-11-03T11:20:15.856Z,60.40
2018-11-03T11:22:45.255Z,60.40
2018-11-03T11:25:14.049Z,60.20
2018-11-03T11:27:42.886Z,60.00
2018-11-03T11:30:12.752Z,60.00
2018-11-03T11:32:41.742Z,60.40
2018-11-03T11:35:10.734Z,59.40
2018-11-03T11:37:40.039Z,59.50
2018-11-03T11:40:09.626Z,59.50
2018-11-03T11:42:40.617Z,59.50
2018-11-03T11:45:09.150Z,60.20
2018-11-03T11:47:37.842Z,60.30
2018-11-03T11:50:07.067Z,59.60
2018-11-03T11:52:35.728Z,59.50
2018-11-03T11:55:04.740Z,59.60
2018-11-03T11:57:33.821Z,59.60
2018-11-03T12:00:03.785Z,59.20
2018-11-03T12:02:33.897Z,59.10
2018-11-03T12:05:02.349Z,59.00
2018-11-03T12:07:31.143Z,59.00
2018-11-03T12:09:59.695Z,59.20
2018-11-03T12:12:28.406Z,59.40
2018-11-03T12:14:57.293Z,59.60
2018-11-03T12:17:28.367Z,59.80
2018-11-03T12:20:00.065Z,59.70
2018-11-03T12:22:28.741Z,59.80
2018-11-03T12:24:57.329Z,59.90
2018-11-03T12:27:28.429Z,60.50
2018-11-03T12:29:59.621Z,60.00
2018-11-03T12:32:29.044Z,60.30
2018-11-03T12:34:57.803Z,60.20
2018-11-03T12:37:33.635Z,60.30
2018-11-03T12:40:02.511Z,60.10
2018-11-03T12:42:31.323Z,60.00
2018-11-03T12:44:59.937Z,60.20
2018-11-03T12:47:29.248Z,60.20
2018-11-03T12:49:58.913Z,60.20
2018-11-03T12:52:28.556Z,60.20
2018-11-03T12:54:57.152Z,60.20
2018-11-03T12:57:26.789Z,60.00
2018-11-03T12:59:55.663Z,60.00
2018-11-03T13:02:24.439Z,59.90
2018-11-03T13:04:53.137Z,60.20
2018-11-03T13:07:21.840Z,60.20
2018-11-03T13:10:00.434Z,60.40
2018-11-03T13:12:29.345Z,60.30
2018-11-03T13:14:57.923Z,60.20
2018-11-03T13:17:28.170Z,60.20
2018-11-03T13:19:56.969Z,59.90
2018-11-03T13:22:25.547Z,59.80
2018-11-03T13:24:54.136Z,59.70
2018-11-03T13:27:22.713Z,59.90
2018-11-03T13:29:51.170Z,60.00
2018-11-03T13:32:19.712Z,60.00
2018-11-03T13:34:48.295Z,60.10
2018-11-03T13:37:16.769Z,60.30
2018-11-03T13:39:45.264Z,60.40
2018-11-03T13:42:13.828Z,60.50
2018-11-03T13:44:42.382Z,60.50
2018-11-03T13:47:11.010Z,60.70
2018-11-03T13:49:39.458Z,60.90
2018-11-03T13:52:08.225Z,60.80
2018-11-03T13:54:36.670Z,60.90
2018-11-03T13:57:05.727Z,61.10
2018-11-03T13:59:35.642Z,61.30
2018-11-03T14:02:04.681Z,61.50
2018-11-03T14:04:33.406Z,61.40
2018-11-03T14:07:01.961Z,61.60
2018-11-03T14:09:31.523Z,61.70
2018-11-03T14:12:00.012Z,61.80
2018-11-03T14:14:28.612Z,61.90
2018-11-03T14:16:57.199Z,61.90
2018-11-03T14:19:25.786Z,61.90
2018-11-03T14:21:54.334Z,62.00
2018-11-03T14:24:23.228Z,61.90
2018-11-03T14:26:51.819Z,61.90
2018-11-03T14:29:21.269Z,62.10
2018-11-03T14:31:50.170Z,62.20
2018-11-03T14:34:19.633Z,62.40
2018-11-03T14:36:49.601Z,62.30
2018-11-03T14:39:19.292Z,62.50
2018-11-03T14:41:54.013Z,62.50
2018-11-03T14:44:24.961Z,62.70
2018-11-03T14:46:53.829Z,62.30
2018-11-03T14:49:22.625Z,62.40
2018-11-03T14:51:51.165Z,62.50
2018-11-03T14:54:26.129Z,62.40
2018-11-03T14:56:54.695Z,62.60
2018-11-03T14:59:23.136Z,62.60
2018-11-03T15:01:52.673Z,62.60
2018-11-03T15:04:21.156Z,63.40
2018-11-03T15:06:49.669Z,62.80
2018-11-03T15:09:18.417Z,62.80
2018-11-03T15:11:46.932Z,62.80
2018-11-03T15:14:15.633Z,62.80
2018-11-03T15:16:44.052Z,62.80
2018-11-03T15:19:12.913Z,62.80
2018-11-03T15:21:42.548Z,62.90
2018-11-03T15:24:11.179Z,62.90
2018-11-03T15:26:39.631Z,62.90
2018-11-03T15:29:08.465Z,63.00
2018-11-03T15:31:37.080Z,63.00
2018-11-03T15:34:05.578Z,63.00
2018-11-03T15:36:34.151Z,63.10
2018-11-03T15:39:06.850Z,63.20
2018-11-03T15:41:36.565Z,63.20
2018-11-03T15:44:05.246Z,63.30
2018-11-03T15:46:34.032Z,64.00
2018-11-03T15:49:02.513Z,63.40
2018-11-03T15:51:32.090Z,63.30
2018-11-03T15:54:00.697Z,63.60
2018-11-03T15:56:29.327Z,63.40
2018-11-03T15:58:59.591Z,63.40
2018-11-03T16:01:28.909Z,63.40
2018-11-03T16:03:57.477Z,63.50
2018-11-03T16:06:26.125Z,63.60
2018-11-03T16:08:58.897Z,63.50
2018-11-03T16:11:28.541Z,63.50
2018-11-03T16:13:57.051Z,63.60
2018-11-03T16:16:26.836Z,63.50
2018-11-03T16:18:55.282Z,63.60
2018-11-03T16:21:23.868Z,63.80
2018-11-03T16:23:52.495Z,63.70
2018-11-03T16:26:22.435Z,63.90
2018-11-03T16:28:51.408Z,63.90
2018-11-03T16:31:20.156Z,63.90
2018-11-03T16:33:48.678Z,64.00
2018-11-03T16:36:17.180Z,64.00
2018-11-03T16:38:45.723Z,63.90
2018-11-03T16:41:15.204Z,64.00
2018-11-03T16:43:43.740Z,63.90
2018-11-03T16:46:12.356Z,63.90
2018-11-03T16:48:40.827Z,64.10
2018-11-03T16:51:11.264Z,64.10
2018-11-03T16:53:39.872Z,64.00
2018-11-03T16:56:08.460Z,64.20
2018-11-03T16:58:37.314Z,64.30
2018-11-03T17:01:07.482Z,64.40
2018-11-03T17:03:36.144Z,64.40
2018-11-03T17:06:04.752Z,64.50
2018-11-03T17:08:33.291Z,64.60
2018-11-03T17:11:03.032Z,64.50
2018-11-03T17:13:31.569Z,64.50
2018-11-03T17:16:00.264Z,64.70
2018-11-03T17:18:29.431Z,64.70
2018-11-03T17:21:03.070Z,64.80
2018-11-03T17:23:31.694Z,64.90
2018-11-03T17:26:01.525Z,64.90
2018-11-03T17:28:30.038Z,64.90
2018-11-03T17:30:58.536Z,65.10
2018-11-03T17:33:27.141Z,65.10
2018-11-03T17:35:56.798Z,65.10
2018-11-03T17:38:25.463Z,66.00
2018-11-03T17:40:53.996Z,65.20
2018-11-03T17:43:22.550Z,65.30
2018-11-03T17:45:51.179Z,65.20
2018-11-03T17:48:19.851Z,65.40
2018-11-03T17:50:48.512Z,65.30
2018-11-03T17:53:16.988Z,65.50
2018-11-03T17:55:45.586Z,65.50
2018-11-03T17:58:14.111Z,65.50
2018-11-03T18:00:43.356Z,65.60
2018-11-03T18:03:12.956Z,65.60
2018-11-03T18:05:41.505Z,65.80
2018-11-03T18:08:10.543Z,65.80
2018-11-03T18:10:39.674Z,65.90
2018-11-03T18:13:08.208Z,65.90
2018-11-03T18:15:36.691Z,65.90
2018-11-03T18:18:05.261Z,65.90
2018-11-03T18:20:34.196Z,66.00
2018-11-03T18:23:02.732Z,66.10
2018-11-03T18:25:31.237Z,66.20
2018-11-03T18:27:59.851Z,66.10
2018-11-03T18:30:28.358Z,66.20
2018-11-03T18:32:56.831Z,66.10
2018-11-03T18:35:25.308Z,66.20
2018-11-03T18:37:53.866Z,66.90
2018-11-03T18:40:24.490Z,66.20
2018-11-03T18:42:52.982Z,66.20
2018-11-03T18:45:21.650Z,66.20
2018-11-03T18:47:50.418Z,66.30
2018-11-03T18:50:18.942Z,66.30
2018-11-03T18:52:47.503Z,66.30
2018-11-03T18:55:15.939Z,66.30
2018-11-03T18:57:46.644Z,66.30
2018-11-03T19:00:15.154Z,66.30
2018-11-03T19:02:43.702Z,66.40
2018-11-03T19:05:12.379Z,66.40
2018-11-03T19:07:42.126Z,66.40
2018-11-03T19:10:11.465Z,66.50
2018-11-03T19:12:40.665Z,66.50
2018-11-03T19:15:11.266Z,66.50
2018-11-03T19:17:40.184Z,66.60
2018-11-03T19:20:11.188Z,66.50
2018-11-03T19:22:39.759Z,66.40
2018-11-03T19:25:09.963Z,66.50
2018-11-03T19:27:38.710Z,66.50
2018-11-03T19:30:09.686Z,66.40
2018-11-03T19:32:38.698Z,67.20
2018-11-03T19:35:07.692Z,66.50
2018-11-03T19:37:36.861Z,66.50
2018-11-03T19:40:06.656Z,66.50
2018-11-03T19:42:35.194Z,66.50
2018-11-03T19:45:03.796Z,66.50
2018-11-03T19:47:32.389Z,66.60
2018-11-03T19:50:00.937Z,66.60
2018-11-03T19:52:29.777Z,66.60
2018-11-03T19:54:58.399Z,66.70
2018-11-03T19:57:27.049Z,66.50
2018-11-03T19:59:57.644Z,66.60
2018-11-03T20:02:26.159Z,66.70
2018-11-03T20:04:54.957Z,66.80
2018-11-03T20:07:23.714Z,67.60
2018-11-03T20:09:52.364Z,66.90
2018-11-03T20:12:20.908Z,66.80
2018-11-03T20:14:50.743Z,66.90
2018-11-03T20:17:20.657Z,66.90
2018-11-03T20:19:49.199Z,66.90
2018-11-03T20:22:17.902Z,66.90
2018-11-03T20:24:46.771Z,66.90
2018-11-03T20:27:15.500Z,67.00
2018-11-03T20:29:43.989Z,67.00
2018-11-03T20:32:12.870Z,67.00
2018-11-03T20:34:41.404Z,67.00
2018-11-03T20:37:09.906Z,67.00
2018-11-03T20:39:38.524Z,67.10
2018-11-03T20:42:07.411Z,67.00
2018-11-03T20:44:36.022Z,67.10
2018-11-03T20:47:04.673Z,67.20
2018-11-03T20:49:33.975Z,67.20
2018-11-03T20:52:03.543Z,67.20
2018-11-03T20:54:32.246Z,67.90
2018-11-03T20:57:01.056Z,67.20
2018-11-03T20:59:29.791Z,67.10
2018-11-03T21:01:58.495Z,67.10
2018-11-03T21:04:26.884Z,67.30
2018-11-03T21:06:55.716Z,67.30
2018-11-03T21:09:24.402Z,67.20
2018-11-03T21:11:53.011Z,67.30
2018-11-03T21:14:21.527Z,67.20
2018-11-03T21:16:50.864Z,67.10
2018-11-03T21:19:19.379Z,67.20
2018-11-03T21:21:47.906Z,67.20
2018-11-03T21:24:16.671Z,67.30
2018-11-03T21:26:45.553Z,67.30
2018-11-03T21:29:20.680Z,67.40
2018-11-03T21:31:58.508Z,67.30
2018-11-03T21:38:02.774Z,67.40
2018-11-03T21:40:45.286Z,67.20
2018-11-03T21:43:27.727Z,67.30
2018-11-03T21:46:08.924Z,67.50
2018-11-03T21:49:02.768Z,67.40
2018-11-03T21:51:32.615Z,67.40
2018-11-03T21:54:02.928Z,67.20
2018-11-03T21:56:34.272Z,67.20
2018-11-03T21:59:10.368Z,67.20
2018-11-03T22:01:42.839Z,67.30
2018-11-03T22:04:25.799Z,67.50
2018-11-03T22:09:55.980Z,67.40
2018-11-03T22:12:40.760Z,67.30
2018-11-03T22:15:11.168Z,67.30
2018-11-03T22:17:40.661Z,67.30
2018-11-03T22:20:17.459Z,67.40
2018-11-03T22:22:46.118Z,67.30
2018-11-03T22:25:16.819Z,67.10
2018-11-03T22:27:46.107Z,67.20
2018-11-03T22:30:16.463Z,67.30
2018-11-03T22:32:47.323Z,67.30
2018-11-03T22:35:16.419Z,67.40
2018-11-03T22:37:45.421Z,67.30
2018-11-03T22:40:14.149Z,67.50
2018-11-03T22:42:43.785Z,67.40
2018-11-03T22:45:12.871Z,67.30
2018-11-03T22:47:41.473Z,67.30
2018-11-03T22:50:10.089Z,67.30
2018-11-03T22:52:39.230Z,67.30
2018-11-03T22:55:09.659Z,67.30
2018-11-03T22:57:38.665Z,67.40
2018-11-03T23:00:10.457Z,67.50
2018-11-03T23:02:38.986Z,67.40
2018-11-03T23:05:09.301Z,67.40
2018-11-03T23:07:38.374Z,67.50
2018-11-03T23:10:06.975Z,67.50
2018-11-03T23:12:35.990Z,67.50
2018-11-03T23:15:04.511Z,67.60
2018-11-03T23:17:33.264Z,67.50
2018-11-03T23:20:02.163Z,67.50
2018-11-03T23:22:30.695Z,67.50
2018-11-03T23:24:59.393Z,67.50
2018-11-03T23:27:28.092Z,67.60
2018-11-03T23:29:56.819Z,67.60
2018-11-03T23:32:25.367Z,67.50
2018-11-03T23:34:53.905Z,67.60
2018-11-03T23:37:23.005Z,67.60
2018-11-03T23:39:51.627Z,67.80
2018-11-03T23:42:20.209Z,67.80
2018-11-03T23:44:48.744Z,67.90
2018-11-03T23:47:18.133Z,68.00
2018-11-03T23:49:46.641Z,68.00
2018-11-03T23:52:21.553Z,68.00
2018-11-03T23:55:17.002Z,68.10
